Time;durP1;ratioP1;P1;durP2;ratioP2;P2;SDS_P1;SDS_P2;PMS_P1;PMS_P2;Temp;Humidity;BMP_temperature;BMP_pressure;BME280_temperature;BME280_humidity;BME280_pressure;Samples;Min_cycle;Max_cycle;Signal;HPM_P1;HPM_P2
2020/12/19 00:00:20;;;;;;;22.63;16.08;;;;;;;5.55;86.74;99209.81;5015611;28;20201;-85
2020/12/19 00:02:47;;;;;;;17.92;15.30;;;;;;;5.32;87.24;99199.28;4988247;28;20226;-85
2020/12/19 00:05:13;;;;;;;19.92;16.38;;;;;;;5.26;88.03;99204.03;5008042;28;20221;-85
2020/12/19 00:07:39;;;;;;;20.60;17.38;;;;;;;5.14;88.37;99201.88;5011564;28;20224;-85
2020/12/19 00:10:06;;;;;;;25.38;18.70;;;;;;;5.07;88.55;99203.94;4989126;28;20739;-85
2020/12/19 00:12:32;;;;;;;19.17;14.13;;;;;;;5.09;88.68;99202.09;4977163;28;20632;-84
2020/12/19 00:14:58;;;;;;;18.60;15.13;;;;;;;5.01;88.90;99204.19;5009854;28;20190;-84
2020/12/19 00:17:24;;;;;;;17.15;14.30;;;;;;;5.03;89.01;99197.00;4998415;28;20277;-84
2020/12/19 00:19:50;;;;;;;17.75;14.02;;;;;;;5.05;89.37;99189.81;5038163;28;20223;-86
2020/12/19 00:22:20;;;;;;;16.27;14.57;;;;;;;5.03;89.41;99189.03;5029802;28;20236;-84
2020/12/19 00:24:48;;;;;;;18.38;14.65;;;;;;;4.97;89.18;99183.94;5016234;28;20225;-85
2020/12/19 00:27:15;;;;;;;18.30;14.30;;;;;;;4.92;89.52;99177.94;5012402;28;20657;-85
2020/12/19 00:29:41;;;;;;;17.88;14.15;;;;;;;4.97;89.57;99175.06;5009821;28;20202;-84
2020/12/19 00:32:08;;;;;;;17.48;14.50;;;;;;;4.96;89.49;99174.22;4999344;28;20607;-85
2020/12/19 00:34:51;;;;;;;20.38;15.82;;;;;;;4.95;89.50;99172.47;5032726;28;20244;-87
2020/12/19 00:37:19;;;;;;;25.30;17.30;;;;;;;5.03;89.40;99172.16;5010713;28;20269;-86
2020/12/19 00:39:45;;;;;;;24.48;16.75;;;;;;;5.02;89.19;99173.97;5005490;28;20726;-84
2020/12/19 00:42:11;;;;;;;24.73;17.92;;;;;;;5.11;89.10;99173.56;4995620;28;20208;-84
2020/12/19 00:44:37;;;;;;;18.10;15.40;;;;;;;5.10;88.25;99166.50;5015772;28;20202;-86
2020/12/19 00:47:03;;;;;;;20.05;15.52;;;;;;;5.16;88.08;99165.34;5010028;28;20232;-85
2020/12/19 00:49:29;;;;;;;17.63;13.00;;;;;;;5.16;87.70;99160.91;5034929;28;20217;-85
2020/12/19 00:51:55;;;;;;;15.70;12.53;;;;;;;5.18;87.23;99155.50;5029539;28;20549;-85
2020/12/19 00:54:21;;;;;;;15.80;13.40;;;;;;;5.14;87.06;99162.75;5028269;28;20966;-85
2020/12/19 00:56:56;;;;;;;13.27;11.35;;;;;;;5.21;86.67;99148.22;5014340;28;20202;-85
2020/12/19 00:59:23;;;;;;;16.85;12.23;;;;;;;5.24;86.58;99153.44;5015161;28;20758;-85
2020/12/19 01:01:50;;;;;;;18.10;13.40;;;;;;;5.30;86.52;99146.97;5035109;28;20268;-85
2020/12/19 01:04:16;;;;;;;13.95;11.15;;;;;;;5.29;86.26;99143.44;5023672;28;20342;-84
2020/12/19 01:06:42;;;;;;;17.15;12.18;;;;;;;5.28;86.09;99139.06;5027234;28;20282;-85
2020/12/19 01:09:08;;;;;;;16.35;12.60;;;;;;;5.27;86.07;99131.97;5008106;28;20569;-84
2020/12/19 01:11:37;;;;;;;11.23;10.02;;;;;;;5.20;85.78;99135.84;5032180;28;20229;-85
2020/12/19 01:14:05;;;;;;;15.70;12.00;;;;;;;5.16;86.24;99139.59;5012411;28;20229;-85
2020/12/19 01:16:32;;;;;;;14.15;11.43;;;;;;;5.13;86.27;99134.38;4992924;28;20239;-84
2020/12/19 01:19:04;;;;;;;12.23;10.73;;;;;;;5.17;86.29;99132.44;5014398;28;20224;-85
2020/12/19 01:21:31;;;;;;;13.60;10.15;;;;;;;5.17;86.11;99133.31;4995079;28;20233;-84
2020/12/19 01:23:57;;;;;;;14.70;10.38;;;;;;;5.17;85.97;99135.97;5009801;28;20230;-84
2020/12/19 01:26:24;;;;;;;13.98;10.20;;;;;;;5.23;86.04;99135.72;5010667;28;20222;-84
2020/12/19 01:28:50;;;;;;;16.50;12.60;;;;;;;5.27;85.80;99139.09;5005118;28;20225;-84
2020/12/19 01:31:21;;;;;;;13.07;11.10;;;;;;;5.27;85.51;99133.78;5003439;28;20225;-86
2020/12/19 01:33:49;;;;;;;21.45;15.55;;;;;;;5.28;85.29;99130.19;5022739;28;20284;-85
2020/12/19 01:36:20;;;;;;;23.58;16.73;;;;;;;5.19;84.90;99127.94;5016373;28;20298;-86
2020/12/19 01:38:47;;;;;;;29.13;22.33;;;;;;;5.10;84.94;99139.84;4993452;28;20627;-83
2020/12/19 01:41:13;;;;;;;29.02;20.48;;;;;;;4.96;84.99;99131.59;5011345;28;20665;-86
2020/12/19 01:43:50;;;;;;;18.77;13.85;;;;;;;4.91;85.10;99128.25;5003937;28;20237;-85
2020/12/19 01:46:41;;;;;;;16.05;12.85;;;;;;;5.23;83.70;99125.06;4977920;28;20701;-86
2020/12/19 01:49:07;;;;;;;14.70;12.20;;;;;;;4.71;84.83;99122.03;5014821;28;20577;-85
2020/12/19 01:51:34;;;;;;;16.58;13.02;;;;;;;4.58;85.73;99127.03;5025326;28;20263;-85
2020/12/19 01:54:00;;;;;;;14.57;11.20;;;;;;;4.64;85.52;99121.44;5025831;28;20630;-85
2020/12/19 01:56:39;;;;;;;15.55;12.73;;;;;;;4.63;85.51;99122.34;5030769;28;20225;-85
2020/12/19 01:59:06;;;;;;;11.82;10.40;;;;;;;4.62;85.11;99125.94;5018434;28;20237;-86
2020/12/19 02:01:41;;;;;;;16.10;12.65;;;;;;;4.42;86.26;99112.59;5026016;28;20280;-85
2020/12/19 02:04:07;;;;;;;15.65;12.07;;;;;;;4.46;86.58;99111.56;5018633;28;20233;-85
2020/12/19 02:06:33;;;;;;;15.23;12.40;;;;;;;4.38;86.64;99115.47;5014445;28;20209;-87
2020/12/19 02:08:59;;;;;;;16.10;13.00;;;;;;;4.35;86.88;99112.91;5059818;28;20194;-87
2020/12/19 02:11:27;;;;;;;17.90;12.52;;;;;;;4.32;86.72;99116.59;5052587;28;20304;-84
2020/12/19 02:13:54;;;;;;;18.42;13.43;;;;;;;4.31;87.03;99106.84;5020610;28;20252;-86
2020/12/19 02:16:20;;;;;;;21.60;14.50;;;;;;;4.28;87.23;99099.00;5032075;28;20229;-86
2020/12/19 02:18:46;;;;;;;19.75;13.27;;;;;;;4.38;87.23;99103.03;5029485;28;20950;-85
2020/12/19 02:21:13;;;;;;;16.65;11.18;;;;;;;4.36;87.31;99096.03;5047107;28;20193;-85
2020/12/19 02:23:39;;;;;;;13.10;10.80;;;;;;;4.50;87.53;99091.00;5018089;28;20224;-85
2020/12/19 02:26:05;;;;;;;13.05;10.50;;;;;;;4.56;87.28;99098.72;5017702;28;20597;-85
2020/12/19 02:28:31;;;;;;;13.85;11.20;;;;;;;4.60;86.86;99095.88;5027471;28;20223;-86
2020/12/19 02:30:57;;;;;;;15.90;10.88;;;;;;;4.68;86.36;99088.41;5032807;28;20213;-85
2020/12/19 02:33:24;;;;;;;12.00;10.30;;;;;;;4.77;86.37;99080.03;4993640;28;20220;-84
2020/12/19 02:36:05;;;;;;;13.52;10.68;;;;;;;4.89;85.83;99082.16;5022906;28;20217;-85
2020/12/19 02:38:31;;;;;;;15.27;11.27;;;;;;;4.86;85.26;99084.97;5032727;28;20205;-85
2020/12/19 02:40:57;;;;;;;14.25;11.35;;;;;;;4.87;85.18;99089.34;5052385;28;20290;-85
2020/12/19 02:43:23;;;;;;;15.07;11.55;;;;;;;4.89;85.05;99070.66;5031226;28;20237;-86
2020/12/19 02:45:49;;;;;;;13.98;11.60;;;;;;;4.94;84.79;99076.63;5019514;28;20214;-85
2020/12/19 02:48:16;;;;;;;12.85;11.13;;;;;;;4.88;84.50;99075.09;5017445;28;20190;-85
2020/12/19 02:50:42;;;;;;;13.20;10.63;;;;;;;4.86;84.83;99076.97;5015622;28;20301;-85
2020/12/19 02:53:08;;;;;;;13.65;10.93;;;;;;;4.98;84.10;99070.22;4984684;28;20330;-86
2020/12/19 02:55:34;;;;;;;13.75;10.95;;;;;;;4.90;84.21;99080.38;5012230;28;20236;-85
2020/12/19 02:58:00;;;;;;;15.75;11.43;;;;;;;4.84;84.03;99077.97;5007059;28;20252;-86
2020/12/19 03:00:26;;;;;;;13.18;10.73;;;;;;;5.12;83.29;99070.50;5000857;28;20190;-86
2020/12/19 03:02:52;;;;;;;18.60;12.35;;;;;;;5.05;82.66;99072.56;5017148;28;20616;-85
2020/12/19 03:05:19;;;;;;;12.20;10.50;;;;;;;5.10;82.84;99065.22;5018177;28;20225;-86
2020/12/19 03:07:45;;;;;;;16.00;10.88;;;;;;;4.77;83.33;99061.41;5001858;28;20236;-85
2020/12/19 03:10:11;;;;;;;12.73;9.83;;;;;;;4.81;83.09;99062.13;4995971;28;20257;-85
2020/12/19 03:12:37;;;;;;;14.20;10.32;;;;;;;4.52;84.27;99071.38;4989220;28;20468;-85
2020/12/19 03:15:03;;;;;;;14.57;10.73;;;;;;;4.33;85.37;99075.72;5010261;28;20198;-86
2020/12/19 03:17:29;;;;;;;12.70;10.32;;;;;;;4.26;85.55;99068.94;5028400;28;20214;-86
2020/12/19 03:19:56;;;;;;;13.35;9.75;;;;;;;4.15;86.10;99060.53;5027547;28;20220;-86
2020/12/19 03:22:23;;;;;;;12.55;10.65;;;;;;;4.20;86.27;99063.88;5012768;28;20696;-85
2020/12/19 03:24:50;;;;;;;14.85;11.40;;;;;;;4.17;86.26;99068.44;5019081;28;20223;-85
2020/12/19 03:27:16;;;;;;;15.50;11.75;;;;;;;4.24;86.36;99067.25;5025193;28;20198;-85
2020/12/19 03:30:07;;;;;;;12.50;10.95;;;;;;;4.33;85.86;99058.88;4990521;28;20222;-85
2020/12/19 03:32:33;;;;;;;12.07;10.77;;;;;;;4.31;86.18;99055.44;5013243;28;20234;-85
2020/12/19 03:34:59;;;;;;;15.20;11.27;;;;;;;4.16;86.56;99051.59;4998066;28;20720;-84
2020/12/19 03:37:25;;;;;;;14.77;11.23;;;;;;;4.10;86.99;99061.66;5002584;28;20324;-84
2020/12/19 03:39:51;;;;;;;14.60;12.05;;;;;;;4.03;87.58;99055.69;5019186;28;20201;-85
2020/12/19 03:42:17;;;;;;;13.45;11.73;;;;;;;4.00;87.37;99053.19;5037999;28;20200;-85
2020/12/19 03:44:43;;;;;;;13.60;11.30;;;;;;;4.01;87.33;99052.25;5055929;28;20201;-85
2020/12/19 03:47:09;;;;;;;12.27;10.70;;;;;;;3.98;87.31;99051.50;5039468;28;20206;-85
2020/12/19 03:49:35;;;;;;;14.32;12.20;;;;;;;3.93;87.27;99048.16;5035148;28;20452;-85
2020/12/19 03:52:02;;;;;;;12.75;10.98;;;;;;;3.85;87.54;99048.44;5028908;28;20247;-84
2020/12/19 03:54:29;;;;;;;14.50;10.00;;;;;;;3.93;87.21;99049.00;5036308;28;20216;-85
2020/12/19 03:56:55;;;;;;;13.07;10.07;;;;;;;3.88;87.46;99050.13;5038217;28;20241;-85
2020/12/19 03:59:21;;;;;;;12.10;9.50;;;;;;;3.97;87.53;99047.97;5036925;28;20219;-84
2020/12/19 04:01:47;;;;;;;12.23;10.35;;;;;;;3.93;86.71;99054.31;5015027;28;20217;-84
2020/12/19 04:04:13;;;;;;;11.10;9.80;;;;;;;3.83;87.43;99045.00;5044905;28;20327;-84
2020/12/19 04:06:43;;;;;;;10.43;9.10;;;;;;;4.04;87.00;99046.78;5036562;28;20243;-84
2020/12/19 04:09:09;;;;;;;13.35;10.73;;;;;;;3.86;87.06;99047.53;5041740;28;20325;-85
2020/12/19 04:11:35;;;;;;;13.90;10.88;;;;;;;3.74;86.86;99041.84;5000296;28;20647;-83
2020/12/19 04:14:01;;;;;;;12.50;10.40;;;;;;;3.64;87.54;99041.34;5051542;28;20236;-86
2020/12/19 04:16:27;;;;;;;12.35;10.65;;;;;;;3.61;87.44;99041.44;5031980;28;20225;-84
2020/12/19 04:18:53;;;;;;;15.93;10.98;;;;;;;3.55;87.80;99039.06;5028650;28;20239;-83
2020/12/19 04:21:19;;;;;;;13.48;10.45;;;;;;;3.62;87.56;99037.88;5018598;28;20182;-84
2020/12/19 04:23:48;;;;;;;12.80;10.55;;;;;;;3.61;87.57;99036.13;5017184;28;20218;-83
2020/12/19 04:26:15;;;;;;;10.77;9.02;;;;;;;3.93;86.40;99033.03;5028703;28;20260;-85
2020/12/19 04:28:41;;;;;;;11.73;9.60;;;;;;;3.76;86.34;99035.53;5042586;28;20210;-84
2020/12/19 04:31:07;;;;;;;12.25;10.32;;;;;;;3.73;86.59;99040.97;5030247;28;20233;-85
2020/12/19 04:33:33;;;;;;;13.88;9.70;;;;;;;3.85;85.74;99035.16;5042426;28;20289;-85
2020/12/19 04:35:59;;;;;;;10.35;8.98;;;;;;;3.72;86.16;99028.59;5045611;28;20213;-84
2020/12/19 04:38:25;;;;;;;20.38;14.40;;;;;;;3.60;86.76;99029.09;5018596;28;20385;-84
2020/12/19 04:40:51;;;;;;;18.83;12.60;;;;;;;3.54;86.91;99031.97;5009570;28;20305;-84
2020/12/19 04:43:19;;;;;;;21.60;13.95;;;;;;;3.47;87.44;99038.47;5010298;28;20232;-83
2020/12/19 04:45:48;;;;;;;16.27;12.13;;;;;;;3.46;87.48;99031.41;5001328;28;20233;-84
2020/12/19 04:48:18;;;;;;;12.30;10.98;;;;;;;3.43;87.73;99039.53;5001047;28;20198;-84
2020/12/19 04:50:46;;;;;;;12.35;11.05;;;;;;;3.35;87.80;99044.25;5018124;28;20292;-84
2020/12/19 04:53:14;;;;;;;12.88;11.10;;;;;;;3.33;87.98;99035.47;5023379;28;20321;-83
2020/12/19 04:55:42;;;;;;;14.18;11.25;;;;;;;3.36;88.36;99035.38;5019763;28;20229;-83
2020/12/19 04:58:13;;;;;;;13.70;11.18;;;;;;;3.44;88.15;99027.97;5010259;28;20654;-84
2020/12/19 05:00:40;;;;;;;22.38;11.80;;;;;;;3.55;88.41;99036.41;5013914;28;20214;-84
2020/12/19 05:03:08;;;;;;;11.80;10.65;;;;;;;3.68;88.21;99037.66;5012704;28;20225;-84
2020/12/19 05:05:39;;;;;;;11.40;10.20;;;;;;;3.76;87.90;99035.53;5016358;28;20372;-83
2020/12/19 05:08:05;;;;;;;13.07;10.50;;;;;;;3.94;87.19;99033.94;5020215;28;20221;-83
2020/12/19 05:10:31;;;;;;;12.05;10.85;;;;;;;3.96;86.33;99038.25;5024492;28;20222;-82
2020/12/19 05:12:57;;;;;;;12.25;10.75;;;;;;;3.99;85.84;99038.13;5018411;28;20217;-83
2020/12/19 05:15:24;;;;;;;16.52;12.13;;;;;;;4.07;85.69;99035.16;5016424;28;20201;-85
2020/12/19 05:17:51;;;;;;;19.10;13.82;;;;;;;4.04;85.21;99035.28;5034357;28;20267;-83
2020/12/19 05:20:20;;;;;;;22.42;13.85;;;;;;;4.02;85.07;99037.13;4972016;28;20239;-82
2020/12/19 05:22:53;;;;;;;19.35;13.35;;;;;;;4.00;84.97;99039.00;5018756;28;20220;-83
2020/12/19 05:25:23;;;;;;;16.42;12.20;;;;;;;4.02;85.08;99038.00;5050391;28;20217;-83
2020/12/19 05:27:50;;;;;;;16.25;12.45;;;;;;;4.04;84.77;99036.13;5039454;28;20215;-85
2020/12/19 05:30:19;;;;;;;16.77;11.82;;;;;;;4.09;84.66;99043.94;5038666;28;20193;-83
2020/12/19 05:32:48;;;;;;;26.33;15.65;;;;;;;4.05;84.54;99042.34;5036662;28;22236;-84
2020/12/19 05:35:20;;;;;;;20.55;13.20;;;;;;;3.96;84.44;99045.34;5022130;28;20224;-85
2020/12/19 05:38:05;;;;;;;13.27;11.05;;;;;;;3.88;84.60;99036.84;5006608;28;20240;-83
2020/12/19 05:40:33;;;;;;;11.00;9.63;;;;;;;3.83;84.84;99037.03;5032226;28;20295;-84
2020/12/19 05:43:00;;;;;;;11.90;9.43;;;;;;;3.81;84.74;99038.88;5018056;28;20606;-84
2020/12/19 05:45:28;;;;;;;12.82;9.70;;;;;;;3.72;85.24;99041.91;5016158;28;20210;-84
2020/12/19 05:47:55;;;;;;;16.98;10.85;;;;;;;3.72;85.24;99041.91;5000405;28;20190;-84
2020/12/19 05:50:22;;;;;;;11.98;10.52;;;;;;;3.63;85.61;99036.06;5001050;28;20305;-84
2020/12/19 05:52:49;;;;;;;12.18;10.88;;;;;;;3.63;85.61;99028.97;5015738;28;20232;-85
2020/12/19 05:55:18;;;;;;;11.15;9.60;;;;;;;3.57;85.91;99042.50;5006155;28;20709;-84
2020/12/19 05:57:45;;;;;;;12.98;11.15;;;;;;;3.50;86.55;99046.34;4997644;28;20225;-83
2020/12/19 06:00:13;;;;;;;12.35;11.05;;;;;;;3.50;86.42;99043.69;5027287;28;20689;-84
2020/12/19 06:02:40;;;;;;;12.15;10.63;;;;;;;3.60;86.84;99046.84;5006855;28;20217;-85
2020/12/19 06:05:08;;;;;;;13.88;12.18;;;;;;;3.64;86.59;99045.78;5016087;28;20225;-87
2020/12/19 06:07:54;;;;;;;15.00;11.48;;;;;;;3.70;86.13;99046.41;5025007;28;20320;-84
2020/12/19 06:10:20;;;;;;;17.45;12.80;;;;;;;3.82;85.45;99039.72;5017119;28;20697;-84
2020/12/19 06:12:54;;;;;;;22.75;15.02;;;;;;;3.88;85.48;99045.69;5021182;28;20224;-85
2020/12/19 06:15:38;;;;;;;18.05;13.25;;;;;;;3.92;85.00;99038.44;5019143;28;20193;-84
2020/12/19 06:18:26;;;;;;;17.45;12.02;;;;;;;3.98;84.76;99041.72;5003235;28;20617;-84
2020/12/19 06:20:53;;;;;;;12.35;10.05;;;;;;;3.98;84.22;99038.19;5009097;28;20228;-83
2020/12/19 06:23:19;;;;;;;11.32;9.82;;;;;;;4.00;83.73;99039.88;5034909;28;20230;-84
2020/12/19 06:25:46;;;;;;;20.10;15.35;;;;;;;3.98;83.85;99036.38;5009923;28;20229;-84
2020/12/19 06:28:41;;;;;;;11.35;9.48;;;;;;;4.01;83.69;99038.94;5001405;28;20225;-84
2020/12/19 06:31:18;;;;;;;11.85;9.63;;;;;;;3.95;83.68;99041.84;5019502;28;20293;-83
2020/12/19 06:33:48;;;;;;;13.65;11.60;;;;;;;3.96;84.00;99038.25;5021995;28;20244;-84
2020/12/19 06:36:25;;;;;;;12.55;10.57;;;;;;;3.97;84.17;99034.66;5025909;28;20688;-84
2020/12/19 06:39:07;;;;;;;12.15;10.75;;;;;;;3.94;84.15;99034.81;5033751;28;20196;-84
2020/12/19 06:41:39;;;;;;;21.55;16.60;;;;;;;4.01;83.83;99030.97;5019320;28;20221;-84
2020/12/19 06:44:15;;;;;;;20.75;14.65;;;;;;;4.11;83.57;99031.44;5010876;28;20207;-85
2020/12/19 06:46:41;;;;;;;20.33;15.95;;;;;;;4.14;83.34;99031.31;5044698;28;20215;-84
2020/12/19 06:49:26;;;;;;;20.63;16.08;;;;;;;4.14;83.20;99040.16;5025590;28;20243;-85
2020/12/19 06:52:12;;;;;;;22.55;15.52;;;;;;;4.36;82.27;99035.66;5041144;28;20242;-84
2020/12/19 06:54:44;;;;;;;20.58;15.45;;;;;;;4.35;82.37;99039.25;5010015;28;20728;-84
2020/12/19 06:57:22;;;;;;;16.00;13.48;;;;;;;4.36;81.61;99040.13;5014368;28;20264;-83
2020/12/19 06:59:48;;;;;;;14.23;11.77;;;;;;;4.21;82.17;99030.13;5015196;28;20212;-84
2020/12/19 07:02:20;;;;;;;13.98;12.00;;;;;;;4.15;82.10;99033.91;5015803;28;22526;-84
2020/12/19 07:04:46;;;;;;;13.23;11.65;;;;;;;4.03;82.54;99026.44;4994517;28;20684;-84
2020/12/19 07:07:24;;;;;;;14.60;12.98;;;;;;;3.87;82.71;99028.00;5013524;28;20283;-83
2020/12/19 07:09:56;;;;;;;10.90;9.80;;;;;;;3.81;83.10;99022.94;5004195;28;20213;-84
2020/12/19 07:12:37;;;;;;;12.05;9.65;;;;;;;4.00;82.45;99033.69;5032503;28;20338;-84
2020/12/19 07:15:06;;;;;;;12.30;10.13;;;;;;;3.78;83.29;99028.34;5005554;28;20266;-84
2020/12/19 07:17:48;;;;;;;11.60;10.25;;;;;;;3.60;83.73;99037.06;5013941;28;20213;-84
2020/12/19 07:20:22;;;;;;;10.15;9.20;;;;;;;3.60;84.21;99037.06;5011527;28;20222;-84
2020/12/19 07:22:52;;;;;;;11.98;10.10;;;;;;;3.53;84.69;99038.22;5034941;28;20251;-84
2020/12/19 07:25:19;;;;;;;14.07;9.75;;;;;;;3.49;85.01;99033.97;5017816;28;20286;-83
2020/12/19 07:27:45;;;;;;;13.90;11.38;;;;;;;3.47;85.32;99037.63;5014656;28;20228;-83
2020/12/19 07:30:11;;;;;;;13.05;11.70;;;;;;;3.63;84.83;99033.41;4996304;28;20296;-84
2020/12/19 07:32:38;;;;;;;12.65;10.50;;;;;;;3.71;84.42;99045.50;5021670;28;20210;-84
2020/12/19 07:35:04;;;;;;;12.25;10.93;;;;;;;3.85;83.81;99039.63;5021941;28;20209;-84
2020/12/19 07:37:32;;;;;;;16.42;12.35;;;;;;;3.74;84.56;99045.38;5029658;28;20249;-83
2020/12/19 07:40:07;;;;;;;11.50;9.40;;;;;;;3.94;83.13;99045.44;5039704;28;20734;-83
2020/12/19 07:42:33;;;;;;;10.85;8.75;;;;;;;3.98;83.12;99040.88;5000056;28;20217;-83
2020/12/19 07:44:59;;;;;;;14.75;11.80;;;;;;;3.72;83.66;99041.03;5000606;28;20206;-83
2020/12/19 07:47:25;;;;;;;16.35;11.80;;;;;;;3.86;84.09;99049.34;4993694;28;20222;-83
2020/12/19 07:49:52;;;;;;;16.70;12.00;;;;;;;4.03;82.85;99049.50;4992131;28;20226;-84
2020/12/19 07:52:26;;;;;;;15.70;11.75;;;;;;;3.88;83.39;99050.13;5025921;28;20216;-85
2020/12/19 07:55:00;;;;;;;12.50;10.52;;;;;;;3.86;83.51;99050.19;5017119;28;20657;-84
2020/12/19 07:57:33;;;;;;;19.27;13.25;;;;;;;3.68;84.50;99058.03;5029587;28;20279;-84
2020/12/19 08:00:03;;;;;;;15.50;11.55;;;;;;;3.71;84.59;99053.47;5037610;28;20197;-84
2020/12/19 08:02:36;;;;;;;12.30;10.50;;;;;;;3.73;84.74;99062.22;5040280;28;20221;-84
2020/12/19 08:05:02;;;;;;;16.02;11.82;;;;;;;3.74;84.83;99058.69;5002081;28;20232;-84
2020/12/19 08:07:29;;;;;;;16.83;13.23;;;;;;;3.80;84.45;99057.56;5011129;28;20230;-85
2020/12/19 08:10:12;;;;;;;13.82;11.30;;;;;;;3.81;84.88;99060.16;5003524;28;20229;-85
2020/12/19 08:12:39;;;;;;;15.05;12.65;;;;;;;3.84;85.17;99060.03;5017874;28;20244;-84
2020/12/19 08:15:10;;;;;;;16.40;12.07;;;;;;;3.87;85.51;99065.25;5035297;28;20231;-85
2020/12/19 08:17:57;;;;;;;16.70;11.98;;;;;;;4.24;84.62;99060.13;5049172;28;20655;-85
2020/12/19 08:20:28;;;;;;;13.00;10.68;;;;;;;4.61;82.43;99056.81;5023325;28;20235;-84
2020/12/19 08:23:02;;;;;;;16.83;12.63;;;;;;;4.73;81.53;99059.78;5036475;28;20733;-85
2020/12/19 08:25:29;;;;;;;20.98;13.90;;;;;;;4.75;82.01;99057.91;4996425;28;20229;-85
2020/12/19 08:27:55;;;;;;;16.80;12.68;;;;;;;4.88;81.50;99067.09;4981496;28;20225;-84
2020/12/19 08:30:30;;;;;;;14.95;12.25;;;;;;;4.90;81.22;99051.06;4997446;28;20205;-83
2020/12/19 08:33:03;;;;;;;19.23;13.85;;;;;;;4.70;82.10;99049.28;5017952;28;20210;-83
2020/12/19 08:35:33;;;;;;;18.73;14.13;;;;;;;4.62;82.91;99050.53;5015534;28;20259;-83
2020/12/19 08:38:12;;;;;;;29.88;17.40;;;;;;;4.87;82.80;99051.22;5017464;28;20244;-83
2020/12/19 08:40:48;;;;;;;21.13;13.90;;;;;;;4.79;82.50;99046.22;5031322;28;20228;-83
2020/12/19 08:43:20;;;;;;;16.17;13.05;;;;;;;4.71;82.91;99050.13;5013579;28;20228;-84
2020/12/19 08:45:47;;;;;;;15.88;13.88;;;;;;;4.69;83.44;99060.00;5012320;28;20237;-84
2020/12/19 08:48:24;;;;;;;22.33;15.73;;;;;;;5.07;83.28;99054.69;5016475;28;20266;-84
2020/12/19 08:50:53;;;;;;;23.45;15.63;;;;;;;5.38;81.67;99056.84;5002527;28;20190;-83
2020/12/19 08:53:26;;;;;;;23.58;15.82;;;;;;;5.50;81.33;99054.47;5017359;28;20225;-83
2020/12/19 08:55:54;;;;;;;22.30;18.00;;;;;;;5.78;80.22;99048.72;5002842;28;20230;-85
2020/12/19 08:58:28;;;;;;;21.92;17.35;;;;;;;6.02;79.60;99053.75;5016139;28;20317;-84
2020/12/19 09:00:59;;;;;;;22.50;18.10;;;;;;;5.97;79.92;99054.94;5018824;28;20260;-84
2020/12/19 09:03:31;;;;;;;21.75;17.80;;;;;;;6.13;79.52;99056.78;5007794;28;20261;-84
2020/12/19 09:06:05;;;;;;;21.15;16.83;;;;;;;6.03;80.33;99063.50;5032973;28;20201;-84
2020/12/19 09:08:39;;;;;;;19.13;14.93;;;;;;;6.41;79.82;99067.81;5003330;28;20216;-85
2020/12/19 09:11:09;;;;;;;19.10;15.43;;;;;;;6.17;79.77;99058.34;4993311;28;20313;-85
2020/12/19 09:13:36;;;;;;;19.85;14.38;;;;;;;6.38;80.69;99076.84;4982021;28;20733;-85
2020/12/19 09:16:05;;;;;;;24.40;16.73;;;;;;;6.33;80.08;99073.56;4994175;28;20222;-85
2020/12/19 09:18:33;;;;;;;18.85;12.77;;;;;;;6.42;81.10;99074.88;4997648;28;20225;-85
2020/12/19 09:21:01;;;;;;;19.45;12.65;;;;;;;6.66;79.74;99076.31;4986840;28;20202;-85
2020/12/19 09:23:29;;;;;;;15.55;12.00;;;;;;;6.92;79.32;99067.81;4999216;28;20734;-85
2020/12/19 09:26:00;;;;;;;17.90;13.95;;;;;;;6.85;79.50;99069.09;4983964;28;20246;-85
2020/12/19 09:28:28;;;;;;;16.33;12.98;;;;;;;6.82;79.51;99066.59;5008960;28;20221;-86
2020/12/19 09:30:56;;;;;;;20.92;16.95;;;;;;;7.09;78.45;99065.16;4991420;28;20226;-85
2020/12/19 09:33:23;;;;;;;22.90;19.55;;;;;;;6.99;78.65;99064.75;4982728;28;20313;-85
2020/12/19 09:35:50;;;;;;;12.82;8.70;;;;;;;7.65;79.37;99057.63;5008010;28;20647;-85
2020/12/19 09:38:17;;;;;;;13.00;9.52;;;;;;;7.92;77.62;99054.25;5013064;28;20225;-84
2020/12/19 09:40:43;;;;;;;11.40;8.77;;;;;;;8.08;77.18;99059.59;4980326;28;20289;-85
2020/12/19 09:43:12;;;;;;;7.82;5.45;;;;;;;8.66;76.46;99060.66;5004541;28;20316;-85
2020/12/19 09:45:39;;;;;;;4.40;3.97;;;;;;;9.13;75.05;99059.56;5006243;28;20230;-86
2020/12/19 09:48:05;;;;;;;6.97;4.40;;;;;;;9.70;72.57;99058.63;4983627;28;20210;-85
2020/12/19 09:50:32;;;;;;;5.22;3.53;;;;;;;10.12;70.83;99049.69;5019681;28;20236;-85
2020/12/19 09:52:58;;;;;;;4.25;3.33;;;;;;;10.36;69.73;99053.47;4992311;28;20218;-87
2020/12/19 09:55:27;;;;;;;5.78;3.65;;;;;;;10.40;69.77;99057.69;4980533;28;20249;-85
2020/12/19 09:57:55;;;;;;;3.60;3.13;;;;;;;10.42;69.63;99051.22;4975763;28;20243;-85
2020/12/19 10:00:22;;;;;;;3.80;3.35;;;;;;;10.71;68.14;99057.34;5002302;28;20201;-85
2020/12/19 10:02:58;;;;;;;3.53;3.13;;;;;;;10.60;68.55;99060.75;4985244;28;20242;-86
2020/12/19 10:05:26;;;;;;;4.53;3.00;;;;;;;10.64;68.23;99064.97;4981494;28;20229;-86
2020/12/19 10:07:53;;;;;;;3.50;3.20;;;;;;;10.65;67.83;99065.81;4980096;28;20623;-84
2020/12/19 10:10:48;;;;;;;6.07;5.15;;;;;;;10.73;67.68;99053.56;4988689;28;20218;-84
2020/12/19 10:13:18;;;;;;;5.30;3.25;;;;;;;11.10;65.73;99049.28;4946481;28;20262;-86
2020/12/19 10:16:00;;;;;;;3.30;3.00;;;;;;;11.07;65.79;99044.97;4928459;28;20282;-88
2020/12/19 10:18:31;;;;;;;4.13;3.72;;;;;;;11.06;65.85;99040.50;4995013;28;20281;-84
2020/12/19 10:21:13;;;;;;;3.35;3.05;;;;;;;11.27;64.77;99040.88;5020419;28;20198;-85
2020/12/19 10:24:11;;;;;;;3.70;3.40;;;;;;;11.42;64.65;99039.81;4950693;28;20217;-87
2020/12/19 10:26:56;;;;;;;3.67;2.85;;;;;;;11.63;63.33;99035.63;4959497;28;20230;-85
2020/12/19 10:29:23;;;;;;;4.03;3.08;;;;;;;11.67;63.36;99029.91;5008140;28;20231;-86
2020/12/19 10:31:52;;;;;;;3.97;2.92;;;;;;;11.58;64.15;99030.56;5017965;28;20230;-86
2020/12/19 10:34:18;;;;;;;5.68;3.78;;;;;;;11.62;63.38;99028.53;5024498;28;20244;-85
2020/12/19 10:36:49;;;;;;;4.65;3.83;;;;;;;11.49;63.63;99025.78;5006046;28;20230;-85
2020/12/19 10:39:15;;;;;;;4.55;3.20;;;;;;;11.62;63.33;99023.97;5008225;28;20218;-85
2020/12/19 10:41:41;;;;;;;4.03;3.20;;;;;;;11.78;62.57;99023.75;4992303;28;20268;-87
2020/12/19 10:44:08;;;;;;;7.43;4.40;;;;;;;11.63;63.07;99017.63;4997240;28;20272;-85
2020/12/19 10:46:39;;;;;;;3.60;2.85;;;;;;;11.79;62.12;99025.47;4955494;28;20255;-84
2020/12/19 10:49:14;;;;;;;4.35;3.25;;;;;;;11.71;62.64;99022.47;4990679;28;20226;-84
2020/12/19 10:51:57;;;;;;;3.63;2.65;;;;;;;11.60;62.80;99009.78;4989445;28;20229;-85
2020/12/19 10:54:47;;;;;;;3.20;2.90;;;;;;;11.60;63.16;99014.28;5002501;28;20312;-85
2020/12/19 10:57:23;;;;;;;4.10;3.20;;;;;;;11.69;62.32;99009.09;4951966;28;20202;-85
2020/12/19 10:59:57;;;;;;;9.80;4.32;;;;;;;11.58;62.80;99000.03;5029156;28;20194;-84
2020/12/19 11:02:24;;;;;;;4.20;3.45;;;;;;;11.73;62.23;98998.97;4958085;28;20227;-84
2020/12/19 11:04:52;;;;;;;5.68;3.78;;;;;;;11.69;62.65;98997.47;4996553;28;20222;-83
2020/12/19 11:07:21;;;;;;;4.72;2.70;;;;;;;11.72;62.27;98990.03;4991722;28;20282;-83
2020/12/19 11:09:53;;;;;;;4.85;3.17;;;;;;;11.74;62.29;98984.56;4997378;28;20229;-83
2020/12/19 11:12:20;;;;;;;3.70;2.92;;;;;;;11.75;62.52;98972.81;4964022;28;20229;-84
2020/12/19 11:14:48;;;;;;;4.75;3.03;;;;;;;11.99;61.53;98976.38;4987831;28;20226;-84
2020/12/19 11:17:15;;;;;;;4.07;3.28;;;;;;;12.18;60.95;98972.22;4968414;28;20716;-84
2020/12/19 11:19:43;;;;;;;5.35;3.08;;;;;;;12.29;60.52;98969.59;5003643;28;20206;-84
2020/12/19 11:22:10;;;;;;;4.35;3.42;;;;;;;12.39;62.04;98967.06;4999623;28;20742;-80
2020/12/19 11:24:36;;;;;;;4.17;2.60;;;;;;;12.48;60.73;98966.34;5007861;28;20298;-80
2020/12/19 11:27:02;;;;;;;4.00;3.33;;;;;;;12.81;58.91;98957.38;4997005;28;20476;-81
2020/12/19 11:29:28;;;;;;;3.00;2.50;;;;;;;12.93;58.31;98953.72;4995456;28;20318;-81
2020/12/19 11:31:54;;;;;;;3.88;2.97;;;;;;;13.08;58.02;98952.59;4992140;28;20253;-83
2020/12/19 11:34:23;;;;;;;3.65;2.72;;;;;;;13.22;57.00;98955.06;5003125;28;20225;-83
2020/12/19 11:36:52;;;;;;;4.70;2.90;;;;;;;13.33;56.60;98952.38;4995610;28;20219;-84